Tienen, Belgium
Current Conditions -  °F | °C
As of 4:25 AM on Wednesday 28 Jan 2015 (Local Time) from EBBE Reporting Station
Overcast Overcast  
Wind Chill: 31°   Ceiling: 3700
Heat Index: 39°   Visibility: 6mi
Dew Point: 37°   Wind: 14mph
Humidity: 93%   Direction: 210°SSW
Pressure: 30.03"   Gusts: NA
Location:  50.81°N, 4.94°E
Report Text: EBBE 280325Z AUTO 21012KT 9999 FEW028/// OVC037/// 04/03 Q1017 BLU
Loading
Personal Weather Stations






























Interactive Weather Map New forecast layout! Learn more

10-Day Weather Forecast

Advertisements
Track Severe Weather on mobile